Terminal Aerodrome Forecast
Issued by NWS

Home | Current Version | Previous Version | Text Only | Print | Product List | Glossary On
Versions: 1 2 3 4 5 6 7 8 9 10 11 12 13 14 15 16 17 18
214
FTUS43 KLSX 201459 AAB
TAFUIN
TAF AMD
KUIN 201459Z 2015/2112 15008KT P6SM BKN007
      TEMPO 2015/2017 SCT006 OVC018
     FM201700 15009KT P6SM VCSH OVC015
     FM201900 20011KT P6SM OVC025
     FM202100 21008KT P6SM VCSH BKN035
     FM210100 24010KT P6SM SCT070=

USA.gov is the U.S. government's official web portal to all federal, state and local government web resources and services.